SAS332 ENGM-ENVA
Flight info
| Callsign | SAS332 |
|---|---|
| Flight time | 0h 44m |
| Altitude | 32000 |
| Route | ENGM/19R RIBBE DCT GIGNI DCT VEVOD |
| Aircraft | A20N/M-SDE2E3FGHIRWXY/LB1 |
Departure
| Time | 2026-04-30 18:00 |
|---|---|
| Airport | Oslo-Gardermoen International Airport (ENGM) |
Arrival
| Time | 2026-04-30 18:45 |
|---|---|
| Airport | Trondheim Airport, Værnes (ENVA) |
| Time | Latitude | Longitude | Altitude | Speed | Heading |
|---|---|---|---|---|---|
| 2026-04-30 17:39 | 60.19485 | 11.09270 | 678 ft | 0 kts | 15° |
| 2026-04-30 17:46 | 60.19440 | 11.09245 | 678 ft | 2 kts | 15° |
| 2026-04-30 17:47 | 60.19392 | 11.09253 | 678 ft | 1 kts | 293° |
| 2026-04-30 17:48 | 60.19389 | 11.09270 | 678 ft | 0 kts | 286° |
| 2026-04-30 17:50 | 60.19391 | 11.09257 | 678 ft | 2 kts | 286° |
| 2026-04-30 17:51 | 60.19430 | 11.08994 | 677 ft | 8 kts | 287° |
| 2026-04-30 17:52 | 60.19525 | 11.08621 | 676 ft | 12 kts | 288° |
| 2026-04-30 17:53 | 60.19929 | 11.08758 | 678 ft | 13 kts | 15° |
| 2026-04-30 17:54 | 60.20300 | 11.08973 | 681 ft | 14 kts | 15° |
| 2026-04-30 17:55 | 60.20710 | 11.09211 | 683 ft | 15 kts | 16° |
| 2026-04-30 17:56 | 60.21119 | 11.09444 | 686 ft | 15 kts | 15° |
| 2026-04-30 17:57 | 60.21415 | 11.09617 | 689 ft | 14 kts | 16° |
| 2026-04-30 17:58 | 60.21568 | 11.09365 | 686 ft | 11 kts | 285° |
| 2026-04-30 17:59 | 60.21545 | 11.09131 | 684 ft | 0 kts | 196° |
| 2026-04-30 18:00 | 60.21366 | 11.09023 | 683 ft | 65 kts | 195° |
| 2026-04-30 18:00 | 60.18521 | 11.07359 | 1555 ft | 172 kts | 199° |
| 2026-04-30 18:01 | 60.16272 | 11.05731 | 2898 ft | 182 kts | 217° |
| 2026-04-30 18:02 | 60.14770 | 10.98008 | 4387 ft | 229 kts | 258° |
| 2026-04-30 18:02 | 60.14826 | 10.87690 | 6263 ft | 263 kts | 281° |
| 2026-04-30 18:03 | 60.18049 | 10.79528 | 8848 ft | 274 kts | 345° |
| 2026-04-30 18:04 | 60.23770 | 10.80164 | 11185 ft | 306 kts | 28° |
| 2026-04-30 18:05 | 60.30502 | 10.93505 | 13411 ft | 362 kts | 43° |
| 2026-04-30 18:06 | 60.37653 | 11.08183 | 16494 ft | 377 kts | 42° |
| 2026-04-30 18:07 | 60.45470 | 11.22624 | 19328 ft | 386 kts | 26° |
| 2026-04-30 18:08 | 60.52939 | 11.28493 | 21316 ft | 391 kts | 15° |
| 2026-04-30 18:09 | 60.63339 | 11.35805 | 23758 ft | 403 kts | 15° |
| 2026-04-30 18:10 | 60.74075 | 11.43115 | 25851 ft | 414 kts | 9° |
| 2026-04-30 18:11 | 60.85527 | 11.45521 | 27670 ft | 420 kts | 360° |
| 2026-04-30 18:11 | 60.94200 | 11.46556 | 29430 ft | 415 kts | 360° |
| 2026-04-30 18:12 | 61.02726 | 11.47610 | 31006 ft | 412 kts | 359° |
| 2026-04-30 18:13 | 61.08447 | 11.48198 | 31764 ft | 414 kts | 357° |
| 2026-04-30 18:13 | 61.16119 | 11.48262 | 32280 ft | 418 kts | 356° |
| 2026-04-30 18:14 | 61.22883 | 11.48272 | 32286 ft | 418 kts | 356° |
| 2026-04-30 18:15 | 61.40366 | 11.48326 | 32289 ft | 419 kts | 356° |
| 2026-04-30 18:16 | 61.52021 | 11.48372 | 32289 ft | 419 kts | 356° |
| 2026-04-30 18:17 | 61.57837 | 11.48392 | 32290 ft | 419 kts | 356° |
| 2026-04-30 18:18 | 61.66537 | 11.48424 | 32291 ft | 419 kts | 356° |
| 2026-04-30 18:18 | 61.72364 | 11.48443 | 32289 ft | 419 kts | 356° |
| 2026-04-30 18:19 | 61.78149 | 11.48464 | 32290 ft | 419 kts | 356° |
| 2026-04-30 18:19 | 61.83980 | 11.48485 | 32290 ft | 420 kts | 356° |
| 2026-04-30 18:20 | 61.89821 | 11.48506 | 32289 ft | 420 kts | 355° |
| 2026-04-30 18:20 | 61.95672 | 11.48526 | 32288 ft | 421 kts | 355° |
| 2026-04-30 18:21 | 62.01403 | 11.48175 | 32290 ft | 419 kts | 351° |
| 2026-04-30 18:21 | 62.07177 | 11.46929 | 32288 ft | 418 kts | 349° |
| 2026-04-30 18:22 | 62.12963 | 11.45565 | 32282 ft | 418 kts | 349° |
| 2026-04-30 18:22 | 62.21624 | 11.43531 | 31619 ft | 422 kts | 349° |
| 2026-04-30 18:23 | 62.24560 | 11.42844 | 30915 ft | 422 kts | 349° |
| 2026-04-30 18:23 | 62.27449 | 11.42167 | 30224 ft | 421 kts | 349° |
| 2026-04-30 18:23 | 62.30329 | 11.41489 | 29505 ft | 421 kts | 349° |
| 2026-04-30 18:23 | 62.33238 | 11.40804 | 28753 ft | 421 kts | 348° |
| 2026-04-30 18:24 | 62.39021 | 11.39436 | 27234 ft | 421 kts | 348° |
| 2026-04-30 18:24 | 62.41915 | 11.38754 | 26712 ft | 416 kts | 348° |
| 2026-04-30 18:24 | 62.44759 | 11.38081 | 26202 ft | 410 kts | 348° |
| 2026-04-30 18:25 | 62.47572 | 11.37412 | 25692 ft | 406 kts | 348° |
| 2026-04-30 18:25 | 62.53085 | 11.36101 | 24642 ft | 398 kts | 348° |
| 2026-04-30 18:25 | 62.55818 | 11.35446 | 24120 ft | 395 kts | 348° |
| 2026-04-30 18:26 | 62.61220 | 11.34147 | 23102 ft | 388 kts | 348° |
| 2026-04-30 18:26 | 62.63894 | 11.33504 | 22586 ft | 386 kts | 348° |
| 2026-04-30 18:26 | 62.66569 | 11.32858 | 22074 ft | 383 kts | 347° |
| 2026-04-30 18:27 | 62.71821 | 11.31587 | 21040 ft | 380 kts | 347° |
| 2026-04-30 18:27 | 62.74409 | 11.30960 | 20524 ft | 378 kts | 347° |
| 2026-04-30 18:28 | 62.79591 | 11.29697 | 19476 ft | 375 kts | 347° |
| 2026-04-30 18:28 | 62.82193 | 11.29077 | 18962 ft | 377 kts | 348° |
| 2026-04-30 18:28 | 62.87404 | 11.28484 | 17907 ft | 377 kts | 352° |
| 2026-04-30 18:29 | 62.89997 | 11.28305 | 17347 ft | 374 kts | 352° |
| 2026-04-30 18:29 | 62.97667 | 11.27759 | 15672 ft | 367 kts | 353° |
| 2026-04-30 18:30 | 63.02844 | 11.28689 | 14139 ft | 380 kts | 4° |
| 2026-04-30 18:30 | 63.07946 | 11.30936 | 13035 ft | 374 kts | 6° |
| 2026-04-30 18:31 | 63.10472 | 11.32090 | 12495 ft | 369 kts | 6° |
| 2026-04-30 18:31 | 63.15353 | 11.34545 | 11962 ft | 352 kts | 11° |
| 2026-04-30 18:32 | 63.19839 | 11.38187 | 11251 ft | 331 kts | 15° |
| 2026-04-30 18:32 | 63.21819 | 11.40497 | 10855 ft | 322 kts | 36° |
| 2026-04-30 18:32 | 63.23344 | 11.49154 | 10110 ft | 309 kts | 99° |
| 2026-04-30 18:33 | 63.22681 | 11.53634 | 9736 ft | 303 kts | 112° |
| 2026-04-30 18:33 | 63.22303 | 11.62606 | 8990 ft | 296 kts | 72° |
| 2026-04-30 18:33 | 63.22901 | 11.66937 | 8614 ft | 294 kts | 68° |
| 2026-04-30 18:34 | 63.23602 | 11.71126 | 8210 ft | 288 kts | 59° |
| 2026-04-30 18:34 | 63.25962 | 11.77958 | 7203 ft | 275 kts | 43° |
| 2026-04-30 18:34 | 63.27244 | 11.81059 | 6762 ft | 267 kts | 43° |
| 2026-04-30 18:35 | 63.28546 | 11.83837 | 6436 ft | 259 kts | 30° |
| 2026-04-30 18:35 | 63.30086 | 11.85778 | 6112 ft | 250 kts | 19° |
| 2026-04-30 18:35 | 63.31638 | 11.87278 | 5887 ft | 243 kts | 15° |
| 2026-04-30 18:36 | 63.34659 | 11.86474 | 5268 ft | 221 kts | 319° |
| 2026-04-30 18:36 | 63.35580 | 11.83829 | 5020 ft | 214 kts | 296° |
| 2026-04-30 18:36 | 63.36780 | 11.77955 | 4559 ft | 205 kts | 295° |
| 2026-04-30 18:37 | 63.37367 | 11.75071 | 4372 ft | 202 kts | 295° |
| 2026-04-30 18:37 | 63.37948 | 11.72218 | 4252 ft | 208 kts | 296° |
| 2026-04-30 18:37 | 63.38594 | 11.69356 | 4124 ft | 203 kts | 306° |
| 2026-04-30 18:37 | 63.39614 | 11.67234 | 4034 ft | 201 kts | 328° |
| 2026-04-30 18:38 | 63.40871 | 11.65802 | 4030 ft | 204 kts | 335° |
| 2026-04-30 18:38 | 63.42136 | 11.64427 | 4028 ft | 207 kts | 327° |
| 2026-04-30 18:38 | 63.43119 | 11.62091 | 4019 ft | 206 kts | 295° |
| 2026-04-30 18:38 | 63.43465 | 11.59071 | 4022 ft | 204 kts | 282° |
| 2026-04-30 18:39 | 63.43722 | 11.55929 | 4028 ft | 206 kts | 283° |
| 2026-04-30 18:39 | 63.43995 | 11.52791 | 4026 ft | 208 kts | 283° |
| 2026-04-30 18:39 | 63.44270 | 11.49675 | 4033 ft | 203 kts | 282° |
| 2026-04-30 18:39 | 63.44556 | 11.46571 | 4022 ft | 204 kts | 281° |
| 2026-04-30 18:40 | 63.44826 | 11.43453 | 4019 ft | 209 kts | 281° |
| 2026-04-30 18:40 | 63.45190 | 11.40272 | 4028 ft | 214 kts | 283° |
| 2026-04-30 18:40 | 63.45470 | 11.37017 | 4035 ft | 207 kts | 275° |
| 2026-04-30 18:40 | 63.45608 | 11.33904 | 3932 ft | 198 kts | 274° |
| 2026-04-30 18:41 | 63.45708 | 11.30906 | 3677 ft | 195 kts | 270° |
| 2026-04-30 18:41 | 63.45750 | 11.27916 | 3465 ft | 187 kts | 269° |
| 2026-04-30 18:41 | 63.45759 | 11.25038 | 3139 ft | 184 kts | 267° |
| 2026-04-30 18:41 | 63.45754 | 11.22263 | 2811 ft | 176 kts | 268° |
| 2026-04-30 18:42 | 63.45749 | 11.19621 | 2579 ft | 164 kts | 269° |
| 2026-04-30 18:42 | 63.45740 | 11.14661 | 2087 ft | 164 kts | 271° |
| 2026-04-30 18:42 | 63.45732 | 11.12116 | 1891 ft | 162 kts | 272° |
| 2026-04-30 18:45 | 63.45761 | 10.91256 | 36 ft | 51 kts | 271° |
| 2026-04-30 18:45 | 63.45762 | 10.90723 | 28 ft | 18 kts | 268° |
| 2026-04-30 18:45 | 63.45718 | 10.90452 | 25 ft | 18 kts | 226° |
| 2026-04-30 18:46 | 63.45638 | 10.90370 | 24 ft | 11 kts | 178° |
| 2026-04-30 18:46 | 63.45600 | 10.90494 | 25 ft | 10 kts | 89° |
| 2026-04-30 18:46 | 63.45600 | 10.90652 | 27 ft | 9 kts | 89° |
| 2026-04-30 18:46 | 63.45601 | 10.90795 | 29 ft | 8 kts | 90° |
| 2026-04-30 18:47 | 63.45600 | 10.90918 | 31 ft | 7 kts | 92° |
| 2026-04-30 18:47 | 63.45599 | 10.91021 | 33 ft | 6 kts | 89° |
| 2026-04-30 18:47 | 63.45593 | 10.91112 | 34 ft | 6 kts | 121° |
| 2026-04-30 18:47 | 63.45562 | 10.91168 | 34 ft | 5 kts | 125° |
| 2026-04-30 18:48 | 63.45558 | 10.91252 | 36 ft | 5 kts | 90° |
| 2026-04-30 18:48 | 63.45559 | 10.91323 | 37 ft | 4 kts | 89° |
| 2026-04-30 18:48 | 63.45559 | 10.91386 | 37 ft | 3 kts | 89° |
| 2026-04-30 18:48 | 63.45560 | 10.91434 | 38 ft | 2 kts | 90° |
| 2026-04-30 18:49 | 63.45557 | 10.91472 | 38 ft | 2 kts | 113° |
| 2026-04-30 18:49 | 63.45536 | 10.91481 | 38 ft | 4 kts | 181° |
| 2026-04-30 18:49 | 63.45503 | 10.91481 | 38 ft | 5 kts | 180° |
| 2026-04-30 18:49 | 63.45499 | 10.91481 | 38 ft | 0 kts | 180° |